Barr, South Carolina
Current Conditions -  °F | °C
As of 9:56 PM on Saturday 25 Oct 2014 (Local Time) from KCAE Reporting Station
Clear Clear  
Wind Chill: 12°   Ceiling: Unl
Heat Index: 12°   Visibility: 10mi
Dew Point:   Wind: 3mph
Humidity: 80%   Direction: 260°W
Pressure: 29.97"   Gusts: NA
Location:  33.9903°N, 81.2681°W
Report Text: KCAE 260156Z 26003KT 10SM CLR 12/09 A2997 RMK AO2 SLP147 T01220089
Loading
Personal Weather Stations






























Interactive Weather Map
Tropical Storm Tracking
New forecast layout! Learn more

10-Day Weather Forecast

Advertisements
Track Severe Weather on mobile